createdAt,value
2023-03-11T00:05:07.730Z,100.00
2023-03-11T00:11:09.836Z,100.00
2023-03-11T00:17:11.716Z,100.00
2023-03-11T00:23:15.497Z,100.00
2023-03-11T00:29:17.384Z,100.00
2023-03-11T00:35:26.648Z,100.00
2023-03-11T00:41:29.156Z,100.00
2023-03-11T00:47:31.090Z,100.00
2023-03-11T00:53:33.103Z,100.00
2023-03-11T00:59:35.749Z,100.00
2023-03-11T01:05:37.772Z,100.00
2023-03-11T01:11:39.827Z,100.00
2023-03-11T01:17:42.014Z,100.00
2023-03-11T01:23:44.593Z,100.00
2023-03-11T01:29:46.474Z,100.00
2023-03-11T01:35:49.366Z,100.00
2023-03-11T01:41:52.997Z,100.00
2023-03-11T01:47:55.384Z,100.00
2023-03-11T01:54:00.875Z,100.00
2023-03-11T02:00:09.551Z,98.71
2023-03-11T02:06:17.036Z,97.56
2023-03-11T02:12:19.509Z,96.55
2023-03-11T02:18:22.268Z,97.10
2023-03-11T02:25:02.886Z,97.92
2023-03-11T02:31:04.915Z,96.69
2023-03-11T02:37:10.650Z,95.98
2023-03-11T02:43:18.495Z,95.33
2023-03-11T02:49:22.773Z,94.91
2023-03-11T02:55:24.805Z,95.53
2023-03-11T03:01:29.883Z,95.71
2023-03-11T03:07:32.162Z,95.59
2023-03-11T03:13:34.123Z,95.35
2023-03-11T03:19:36.049Z,95.90
2023-03-11T03:25:37.993Z,95.83
2023-03-11T03:31:39.998Z,95.43
2023-03-11T03:37:41.923Z,96.91
2023-03-11T03:43:43.889Z,95.86
2023-03-11T03:49:45.950Z,95.73
2023-03-11T03:55:49.743Z,95.54
2023-03-11T04:01:51.859Z,95.64
2023-03-11T04:07:54.666Z,95.21
2023-03-11T04:13:56.553Z,96.01
2023-03-11T04:19:58.452Z,96.06
2023-03-11T04:26:01.142Z,96.05
2023-03-11T04:32:03.067Z,95.58
2023-03-11T04:38:05.021Z,95.54
2023-03-11T04:44:06.902Z,95.42
2023-03-11T04:50:09.494Z,94.51
2023-03-11T04:56:11.446Z,95.40
2023-03-11T05:02:13.632Z,94.43
2023-03-11T05:08:15.611Z,94.75
2023-03-11T05:14:17.482Z,94.51
2023-03-11T05:20:19.498Z,94.16
2023-03-11T05:26:21.366Z,94.80
2023-03-11T05:32:23.372Z,95.14
2023-03-11T05:38:25.267Z,94.47
2023-03-11T05:44:27.186Z,94.19
2023-03-11T05:50:29.117Z,94.94
2023-03-11T05:56:31.036Z,95.74
2023-03-11T06:02:33.033Z,97.19
2023-03-11T06:08:35.624Z,96.02
2023-03-11T06:14:38.663Z,95.81
2023-03-11T06:20:40.603Z,96.23
2023-03-11T06:26:43.970Z,95.26
2023-03-11T06:32:48.974Z,93.90
2023-03-11T06:38:55.109Z,95.21
2023-03-11T06:44:57.159Z,95.21
2023-03-11T06:51:00.785Z,94.72
2023-03-11T06:57:02.962Z,95.01
2023-03-11T07:03:04.854Z,94.33
2023-03-11T07:09:06.858Z,94.14
2023-03-11T07:15:10.185Z,94.52
2023-03-11T07:21:16.578Z,93.75
2023-03-11T07:27:18.603Z,93.85
2023-03-11T07:33:24.025Z,93.36
2023-03-11T07:39:25.979Z,93.07
2023-03-11T07:45:28.086Z,92.34
2023-03-11T07:51:33.746Z,93.24
2023-03-11T07:57:35.969Z,91.74
2023-03-11T08:03:39.044Z,91.93
2023-03-11T08:09:41.044Z,90.68
2023-03-11T08:15:42.992Z,89.55
2023-03-11T08:21:44.983Z,89.09
2023-03-11T08:27:46.909Z,89.58
2023-03-11T08:33:51.002Z,89.02
2023-03-11T08:39:53.067Z,89.64
2023-03-11T08:45:55.013Z,89.79
2023-03-11T08:51:57.022Z,90.10
2023-03-11T08:57:58.913Z,87.99
2023-03-11T09:04:00.869Z,86.47
2023-03-11T09:10:03.671Z,86.06
2023-03-11T09:16:06.090Z,83.92
2023-03-11T09:22:08.024Z,82.91
2023-03-11T09:28:10.133Z,81.82
2023-03-11T09:34:15.747Z,79.66
2023-03-11T09:40:23.334Z,80.09
2023-03-11T09:46:49.222Z,79.60
2023-03-11T09:52:53.878Z,82.07
2023-03-11T09:59:27.687Z,82.80
2023-03-11T10:05:30.709Z,83.27
2023-03-11T10:11:45.847Z,79.36
2023-03-11T10:18:21.050Z,80.09
2023-03-11T10:24:57.733Z,81.19
2023-03-11T10:31:27.438Z,78.20
2023-03-11T10:37:49.835Z,74.67
2023-03-11T10:44:02.382Z,76.22
2023-03-11T10:50:04.599Z,75.84
2023-03-11T10:56:06.833Z,75.01
2023-03-11T11:02:32.640Z,73.67
2023-03-11T11:08:34.715Z,68.23
2023-03-11T11:14:52.576Z,65.82
2023-03-11T11:21:13.528Z,66.44
2023-03-11T11:27:26.480Z,64.15
2023-03-11T11:33:51.709Z,61.54
2023-03-11T11:39:58.588Z,61.57
2023-03-11T11:46:13.304Z,63.11
2023-03-11T11:52:24.361Z,62.93
2023-03-11T11:58:26.273Z,58.35
2023-03-11T12:04:50.929Z,49.27
2023-03-11T12:11:12.342Z,48.98
2023-03-11T12:17:18.516Z,47.48
2023-03-11T12:23:43.830Z,51.50
2023-03-11T12:29:52.886Z,49.01
2023-03-11T12:35:57.854Z,53.56
2023-03-11T12:42:38.235Z,54.67
2023-03-11T12:49:07.791Z,52.27
2023-03-11T12:55:18.768Z,48.56
2023-03-11T13:01:50.982Z,53.00
2023-03-11T13:08:15.258Z,55.25
2023-03-11T13:14:35.934Z,55.33
2023-03-11T13:20:43.472Z,51.88
2023-03-11T13:27:00.532Z,49.25
2023-03-11T13:33:29.790Z,50.52
2023-03-11T13:39:37.960Z,48.51
2023-03-11T13:45:39.896Z,45.02
2023-03-11T13:51:46.511Z,40.72
2023-03-11T13:57:54.607Z,44.19
2023-03-11T14:03:56.626Z,46.92
2023-03-11T14:10:20.233Z,49.20
2023-03-11T14:16:43.793Z,49.16
2023-03-11T14:22:49.434Z,42.28
2023-03-11T14:28:54.933Z,48.70
2023-03-11T14:34:57.536Z,47.23
2023-03-11T14:41:06.911Z,48.81
2023-03-11T14:47:35.325Z,50.69
2023-03-11T14:53:45.941Z,51.47
2023-03-11T14:59:51.079Z,51.67
2023-03-11T15:05:58.061Z,48.78
2023-03-11T15:12:05.605Z,44.18
2023-03-11T15:18:28.773Z,40.06
2023-03-11T15:24:33.491Z,38.99
2023-03-11T15:30:35.767Z,42.57
2023-03-11T15:36:44.393Z,45.85
2023-03-11T15:42:48.183Z,45.90
2023-03-11T15:48:50.101Z,42.30
2023-03-11T15:54:55.775Z,39.44
2023-03-11T16:00:58.157Z,39.46
2023-03-11T16:07:07.875Z,41.81
2023-03-11T16:13:15.722Z,43.05
2023-03-11T16:19:17.628Z,40.88
2023-03-11T16:25:34.607Z,41.27
2023-03-11T16:31:36.582Z,41.00
2023-03-11T16:37:41.901Z,42.16
2023-03-11T16:43:44.603Z,42.46
2023-03-11T16:49:50.394Z,46.59
2023-03-11T16:55:52.883Z,50.13
2023-03-11T17:01:54.848Z,54.77
2023-03-11T17:08:01.001Z,57.22
2023-03-11T17:14:15.531Z,58.65
2023-03-11T17:20:21.400Z,61.33
2023-03-11T17:26:23.831Z,61.98
2023-03-11T17:32:25.942Z,63.09
2023-03-11T17:38:29.412Z,63.41
2023-03-11T17:44:44.608Z,61.20
2023-03-11T17:50:52.311Z,62.20
2023-03-11T17:56:55.816Z,62.01
2023-03-11T18:02:57.703Z,62.76
2023-03-11T18:09:00.026Z,64.95
2023-03-11T18:15:06.139Z,66.05
2023-03-11T18:21:14.585Z,66.51
2023-03-11T18:27:16.498Z,67.72
2023-03-11T18:33:18.396Z,68.30
2023-03-11T18:39:20.403Z,67.56
2023-03-11T18:45:22.298Z,67.83
2023-03-11T18:51:26.060Z,70.34
2023-03-11T18:57:27.982Z,73.24
2023-03-11T19:03:29.865Z,73.76
2023-03-11T19:09:31.896Z,76.37
2023-03-11T19:15:33.985Z,77.27
2023-03-11T19:21:35.944Z,79.31
2023-03-11T19:27:40.187Z,80.58
2023-03-11T19:33:46.940Z,81.85
2023-03-11T19:39:48.869Z,82.59
2023-03-11T19:45:50.846Z,81.64
2023-03-11T19:51:54.696Z,82.28
2023-03-11T19:57:56.790Z,82.18
2023-03-11T20:03:59.831Z,83.27
2023-03-11T20:10:01.735Z,83.24
2023-03-11T20:16:09.899Z,83.27
2023-03-11T20:22:11.885Z,83.03
2023-03-11T20:28:13.956Z,84.40
2023-03-11T20:34:16.056Z,83.93
2023-03-11T20:40:19.123Z,84.67
2023-03-11T20:46:21.350Z,84.10
2023-03-11T20:52:23.383Z,85.02
2023-03-11T20:58:25.671Z,85.64
2023-03-11T21:04:27.695Z,85.47
2023-03-11T21:10:30.841Z,85.84
2023-03-11T21:16:33.315Z,86.69
2023-03-11T21:22:35.295Z,85.38
2023-03-11T21:28:39.898Z,85.24
2023-03-11T21:34:41.856Z,84.88
2023-03-11T21:40:43.866Z,84.65
2023-03-11T21:46:45.983Z,84.81
2023-03-11T21:52:48.001Z,85.37
2023-03-11T21:58:50.024Z,85.18
2023-03-11T22:04:52.122Z,85.98
2023-03-11T22:10:54.781Z,85.58
2023-03-11T22:16:56.860Z,86.28
2023-03-11T22:22:59.356Z,86.70
2023-03-11T22:29:03.791Z,87.03
2023-03-11T22:35:06.406Z,86.79
2023-03-11T22:41:08.434Z,87.85
2023-03-11T22:47:10.324Z,88.05
2023-03-11T22:53:13.614Z,88.40
2023-03-11T22:59:15.543Z,89.20
2023-03-11T23:05:17.579Z,89.15
2023-03-11T23:11:21.283Z,89.22
2023-03-11T23:17:23.180Z,88.86
2023-03-11T23:23:25.192Z,89.25
2023-03-11T23:29:27.091Z,88.39
2023-03-11T23:35:29.123Z,89.31
2023-03-11T23:41:31.093Z,89.02
2023-03-11T23:47:33.012Z,89.11
2023-03-11T23:53:36.118Z,89.49
2023-03-11T23:59:38.031Z,89.94
